Weather History for Boone, IA

Change the Weather History Date:

Friday, November 2, 2012

  Actual Average Record
Temperature  
Mean Temperature 42 °F -  
Max Temperature 50 °F 51 °F 78 °F (2005)
Min Temperature 34 °F 34 °F 10 °F (1951)
Degree Days  
Heating Degree Days 23    
Moisture  
Dew Point 30 °F    
Average Humidity 64    
Maximum Humidity 79    
Minimum Humidity 46    
Precipitation  
Precipitation 0.00 in - - ()
Sea Level Pressure  
Sea Level Pressure 30.06 in    
Wind  
Wind Speed 8 mph (ENE)    
Max Wind Speed 16 mph    
Max Gust Speed 18 mph    
Visibility 10 miles    
Events      
Averages and records for this station are not official NWS values.
T = Trace of Precipitation, MM = Missing Value Source: NWS Daily Summary

Daily Weather History Graph

Daily Weather History Graph

Search for Another Location

Airport:

Trip Planner

Search our weather history database for the weather conditions in past years. The results will help you decide how hot, cold, wet, or windy it might be!

Date:

Astronomy

Nov. 02, 2012 Rise Set
Actual Time 7:49 AM CDT 6:07 PM CDT
Civil Twilight 7:20 AM CDT 6:36 PM CDT
Nautical Twilight 6:47 AM CDT 7:09 PM CDT
Astronomical Twilight 6:15 AM CDT 7:42 PM CDT
Moon 8:53 PM CDT (11/2) 11:13 AM CDT (11/2)
Length of Visible Light 11h 15m
Length of Day
10h 17m
Waning Gibbous, 87% of the Moon is Illuminated
Nov 2
Waning Gibbous
Nov 6
Last Quarter
Nov 13
New
Nov 20
First Quarter
Nov 28
Full

Hourly Weather History & Observations

Time (CDT) Temp. Windchill Dew Point Humidity Pressure Visibility Wind Dir Wind Speed Gust Speed Precip Events Conditions
12:15 AM 37.9 °F 32.7 °F 29.7 °F 72% 30.03 in 10.0 mi North 6.9 mph - N/A   Clear
12:35 AM 37.6 °F 32.3 °F 29.5 °F 73% 30.02 in 10.0 mi North 6.9 mph - N/A   Clear
12:55 AM 37.4 °F 32.1 °F 29.3 °F 73% 30.03 in 10.0 mi North 6.9 mph - N/A   Clear
1:15 AM 37.0 °F 32.4 °F 29.3 °F 74% 30.03 in 10.0 mi North 5.8 mph - N/A   Clear
1:35 AM 37.2 °F 32.6 °F 28.8 °F 71% 30.03 in 10.0 mi North 5.8 mph - N/A   Clear
1:55 AM 36.7 °F 32.0 °F 28.4 °F 72% 30.04 in 10.0 mi North 5.8 mph - N/A   Clear
2:15 AM 36.7 °F 32.0 °F 28.8 °F 73% 30.05 in 10.0 mi North 5.8 mph - N/A   Clear
2:35 AM 36.9 °F 31.4 °F 28.6 °F 72% 30.04 in 10.0 mi NNE 6.9 mph - N/A   Clear
2:55 AM 36.7 °F 30.5 °F 28.8 °F 73% 30.05 in 10.0 mi NNE 8.1 mph - N/A   Clear
3:15 AM 36.5 °F 31.8 °F 28.9 °F 74% 30.05 in 10.0 mi NNE 5.8 mph - N/A   Clear
3:35 AM 36.5 °F 31.8 °F 28.4 °F 72% 30.05 in 10.0 mi NNE 5.8 mph - N/A   Clear
3:55 AM 35.8 °F 30.1 °F 28.8 °F 76% 30.04 in 10.0 mi NE 6.9 mph - N/A   Clear
4:15 AM 35.8 °F 30.1 °F 28.8 °F 76% 30.03 in 10.0 mi NE 6.9 mph - N/A   Clear
4:35 AM 35.8 °F 30.1 °F 28.4 °F 75% 30.03 in 10.0 mi NE 6.9 mph - N/A   Clear
4:55 AM 35.4 °F 30.5 °F 28.4 °F 76% 30.03 in 10.0 mi ENE 5.8 mph - N/A   Clear
5:15 AM 35.2 °F 30.3 °F 28.4 °F 76% 30.04 in 10.0 mi NE 5.8 mph - N/A   Clear
5:35 AM 35.6 °F 29.2 °F 28.6 °F 76% 30.03 in 10.0 mi ENE 8.1 mph - N/A   Scattered Clouds
5:55 AM 35.2 °F 28.8 °F 28.8 °F 77% 30.03 in 10.0 mi ENE 8.1 mph - N/A   Scattered Clouds
6:15 AM 35.2 °F 29.5 °F 28.6 °F 77% 30.04 in 10.0 mi ENE 6.9 mph - N/A   Clear
6:35 AM 34.9 °F 29.9 °F 28.6 °F 78% 30.05 in 10.0 mi ENE 5.8 mph - N/A   Clear
6:55 AM 34.9 °F 28.3 °F 28.8 °F 78% 30.05 in 10.0 mi ENE 8.1 mph - N/A   Clear
7:15 AM 34.9 °F 29.0 °F 28.8 °F 78% 30.05 in 10.0 mi East 6.9 mph - N/A   Clear
7:35 AM 35.1 °F 30.1 °F 28.4 °F 77% 30.05 in 10.0 mi East 5.8 mph - N/A   Clear
7:55 AM 34.9 °F 29.9 °F 28.9 °F 79% 30.06 in 10.0 mi East 5.8 mph - N/A   Clear
8:15 AM 35.2 °F 31.2 °F 29.1 °F 78% 30.07 in 10.0 mi East 4.6 mph - N/A   Clear
8:35 AM 36.3 °F 30.8 °F 29.5 °F 76% 30.07 in 10.0 mi East 6.9 mph - N/A   Clear
8:55 AM 37.8 °F 31.3 °F 29.5 °F 72% 30.08 in 10.0 mi East 9.2 mph - N/A   Clear
9:15 AM 39.4 °F 32.3 °F 30.0 °F 69% 30.08 in 10.0 mi East 11.5 mph - N/A   Clear
9:35 AM 40.1 °F 32.0 °F 29.8 °F 67% 30.08 in 10.0 mi East 15.0 mph - N/A   Clear
9:55 AM 40.3 °F 32.6 °F 29.8 °F 66% 30.08 in 10.0 mi ESE 13.8 mph - N/A   Clear
10:15 AM 41.0 °F 33.5 °F 30.0 °F 65% 30.08 in 10.0 mi ESE 13.8 mph - N/A   Clear
10:35 AM 42.1 °F 34.5 °F 30.7 °F 64% 30.08 in 10.0 mi ESE 15.0 mph - N/A   Clear
10:55 AM 43.7 °F 37.3 °F 31.1 °F 61% 30.08 in 10.0 mi ESE 12.7 mph - N/A   Clear
11:15 AM 44.2 °F 37.6 °F 30.7 °F 59% 30.08 in 10.0 mi ESE 13.8 mph 18.4 mph N/A   Clear
11:35 AM 45.1 °F 38.1 °F 30.7 °F 57% 30.07 in 10.0 mi ESE 16.1 mph - N/A   Clear
11:55 AM 45.7 °F 39.1 °F 30.9 °F 56% 30.07 in 10.0 mi ESE 15.0 mph - N/A   Scattered Clouds
12:15 PM 46.0 °F 39.6 °F 30.4 °F 54% 30.07 in 10.0 mi ESE 15.0 mph - N/A   Clear
12:35 PM 46.8 °F - 30.0 °F 52% 30.07 in 10.0 mi ESE 15.0 mph - N/A   Clear
12:55 PM 47.5 °F - 30.4 °F 52% 30.06 in 10.0 mi ESE 13.8 mph - N/A   Clear
1:15 PM 48.0 °F - 30.2 °F 50% 30.05 in 10.0 mi ESE 15.0 mph - N/A   Clear
1:35 PM 48.0 °F - 30.0 °F 50% 30.05 in 10.0 mi East 15.0 mph - N/A   Clear
1:55 PM 48.7 °F - 30.0 °F 48% 30.05 in 10.0 mi ESE 11.5 mph - N/A   Clear
2:15 PM 48.4 °F - 29.8 °F 49% 30.06 in 10.0 mi ESE 11.5 mph - N/A   Clear
2:35 PM 48.7 °F - 30.0 °F 48% 30.06 in 10.0 mi East 9.2 mph - N/A   Clear
2:55 PM 49.3 °F - 30.2 °F 48% 30.04 in 10.0 mi East 12.7 mph 17.3 mph N/A   Clear
3:15 PM 49.6 °F - 30.2 °F 47% 30.04 in 10.0 mi East 13.8 mph - N/A   Clear
3:35 PM 49.5 °F - 30.7 °F 49% 30.03 in 10.0 mi East 13.8 mph - N/A   Clear
3:55 PM 50.0 °F - 30.0 °F 46% 30.03 in 10.0 mi East 15.0 mph - N/A   Clear
4:15 PM 49.3 °F - 30.2 °F 48% 30.03 in 10.0 mi East 15.0 mph - N/A   Clear
4:35 PM 49.1 °F - 29.8 °F 47% 30.04 in 10.0 mi East 15.0 mph - N/A   Clear
4:55 PM 48.7 °F - 29.5 °F 47% 30.03 in 10.0 mi East 15.0 mph - N/A   Clear
5:15 PM 48.4 °F - 29.3 °F 48% 30.03 in 10.0 mi East 12.7 mph - N/A   Clear
5:35 PM 48.0 °F - 29.8 °F 49% 30.03 in 10.0 mi East 11.5 mph - N/A   Clear
5:55 PM 47.7 °F - 30.2 °F 51% 30.03 in 10.0 mi East 11.5 mph - N/A   Clear
6:15 PM 47.5 °F - 30.0 °F 51% 30.03 in 10.0 mi East 11.5 mph - N/A   Clear
6:55 PM 46.6 °F - 30.9 °F 54% 30.04 in 10.0 mi East 9.2 mph - N/A   Clear
7:15 PM 46.2 °F 44.1 °F 31.1 °F 56% 30.06 in 10.0 mi East 4.6 mph - N/A   Clear
7:35 PM 44.8 °F 41.6 °F 32.0 °F 61% 30.06 in 10.0 mi East 5.8 mph - N/A   Clear
7:55 PM 43.7 °F 41.1 °F 31.6 °F 63% 30.07 in 10.0 mi ENE 4.6 mph - N/A   Clear
8:15 PM 42.6 °F 39.9 °F 31.1 °F 64% 30.06 in 10.0 mi East 4.6 mph - N/A   Clear
8:35 PM 41.2 °F 38.2 °F 31.1 °F 67% 30.07 in 10.0 mi East 4.6 mph - N/A   Clear
8:55 PM 40.3 °F 36.3 °F 31.1 °F 70% 30.08 in 10.0 mi NNE 5.8 mph - N/A   Scattered Clouds
9:15 PM 43.0 °F 39.5 °F 32.0 °F 65% 30.09 in 10.0 mi NNE 5.8 mph - N/A   Overcast
9:35 PM 43.7 °F 40.3 °F 32.0 °F 63% 30.10 in 10.0 mi NNE 5.8 mph - N/A   Overcast
9:55 PM 43.7 °F 40.3 °F 32.0 °F 63% 30.10 in 10.0 mi NNE 5.8 mph - N/A   Overcast
10:15 PM 43.7 °F 40.3 °F 32.0 °F 63% 30.10 in 10.0 mi NE 5.8 mph - N/A   Overcast
10:35 PM 43.7 °F 40.3 °F 32.2 °F 64% 30.10 in 10.0 mi NE 5.8 mph - N/A   Overcast
10:55 PM 43.7 °F 39.7 °F 32.2 °F 64% 30.10 in 10.0 mi NE 6.9 mph - N/A   Overcast
11:15 PM 43.7 °F 39.7 °F 32.2 °F 64% 30.10 in 10.0 mi NE 6.9 mph - N/A   Overcast
11:35 PM 43.7 °F 39.7 °F 32.0 °F 63% 30.10 in 10.0 mi ENE 6.9 mph - N/A   Overcast
11:55 PM 43.7 °F 39.7 °F 32.5 °F 65% 30.10 in 10.0 mi ENE 6.9 mph - N/A   Overcast